createdAt,value
2022-07-25T00:01:46.723Z,17.95
2022-07-25T00:04:16.542Z,18.00
2022-07-25T00:06:46.199Z,16.85
2022-07-25T00:09:15.613Z,17.88
2022-07-25T00:11:44.666Z,18.13
2022-07-25T00:14:13.633Z,17.83
2022-07-25T00:16:42.692Z,19.30
2022-07-25T00:19:14.486Z,18.83
2022-07-25T00:21:43.461Z,18.88
2022-07-25T00:24:12.475Z,19.50
2022-07-25T00:26:41.410Z,19.67
2022-07-25T00:29:10.728Z,19.70
2022-07-25T00:31:39.700Z,20.73
2022-07-25T00:34:09.211Z,18.15
2022-07-25T00:36:40.148Z,20.95
2022-07-25T00:39:09.220Z,19.33
2022-07-25T00:41:38.229Z,19.48
2022-07-25T00:44:08.150Z,18.83
2022-07-25T00:46:39.624Z,20.15
2022-07-25T00:49:09.000Z,19.27
2022-07-25T00:51:39.713Z,18.80
2022-07-25T00:54:09.490Z,20.38
2022-07-25T00:56:39.602Z,19.25
2022-07-25T00:59:08.843Z,18.52
2022-07-25T01:01:38.379Z,18.52
2022-07-25T01:04:10.179Z,19.00
2022-07-25T01:06:40.616Z,19.02
2022-07-25T01:09:10.008Z,17.92
2022-07-25T01:11:39.192Z,17.85
2022-07-25T01:14:08.879Z,16.42
2022-07-25T01:16:38.334Z,18.30
2022-07-25T01:19:17.377Z,16.85
2022-07-25T01:21:48.968Z,16.73
2022-07-25T01:24:28.297Z,16.38
2022-07-25T01:26:57.345Z,16.60
2022-07-25T01:29:36.231Z,16.80
2022-07-25T01:32:24.061Z,16.92
2022-07-25T01:35:15.178Z,18.30
2022-07-25T01:37:47.269Z,17.85
2022-07-25T01:40:16.818Z,16.15
2022-07-25T01:42:45.832Z,18.48
2022-07-25T01:45:16.215Z,15.65
2022-07-25T01:47:45.024Z,16.90
2022-07-25T01:50:14.022Z,16.52
2022-07-25T01:52:44.329Z,16.30
2022-07-25T01:55:13.715Z,16.13
2022-07-25T01:57:49.983Z,15.98
2022-07-25T02:00:19.760Z,16.08
2022-07-25T02:02:49.091Z,15.10
2022-07-25T02:05:17.889Z,15.93
2022-07-25T02:07:48.078Z,14.52
2022-07-25T02:10:16.926Z,15.35
2022-07-25T02:12:45.673Z,16.45
2022-07-25T02:15:14.491Z,17.88
2022-07-25T02:17:43.741Z,17.23
2022-07-25T02:20:13.547Z,20.15
2022-07-25T02:22:44.693Z,15.40
2022-07-25T02:25:14.958Z,16.17
2022-07-25T02:27:43.897Z,16.55
2022-07-25T02:30:13.672Z,15.23
2022-07-25T02:32:42.777Z,14.50
2022-07-25T02:35:13.140Z,16.98
2022-07-25T02:37:43.010Z,16.58
2022-07-25T02:40:14.315Z,14.95
2022-07-25T02:42:43.332Z,16.23
2022-07-25T02:45:12.655Z,16.10
2022-07-25T02:47:41.727Z,14.45
2022-07-25T02:50:14.572Z,15.30
2022-07-25T02:52:44.606Z,17.13
2022-07-25T02:55:14.897Z,18.00
2022-07-25T02:57:44.122Z,20.08
2022-07-25T03:00:15.877Z,15.45
2022-07-25T03:02:45.756Z,16.40
2022-07-25T03:05:17.915Z,17.60
2022-07-25T03:07:47.258Z,15.10
2022-07-25T03:10:17.662Z,17.40
2022-07-25T03:12:47.368Z,16.42
2022-07-25T03:15:16.883Z,21.13
2022-07-25T03:17:45.680Z,18.02
2022-07-25T03:20:14.587Z,19.83
2022-07-25T03:22:43.650Z,20.25
2022-07-25T03:25:15.725Z,18.95
2022-07-25T03:27:52.362Z,19.50
2022-07-25T03:30:21.455Z,19.85
2022-07-25T03:32:50.804Z,18.85
2022-07-25T03:35:19.756Z,19.08
2022-07-25T03:37:52.106Z,19.60
2022-07-25T03:42:51.253Z,17.40
2022-07-25T03:45:20.182Z,16.98
2022-07-25T03:47:49.238Z,21.63
2022-07-25T03:50:18.338Z,17.70
2022-07-25T03:52:47.293Z,21.25
2022-07-25T03:55:16.178Z,19.55
2022-07-25T03:57:45.135Z,16.83
2022-07-25T04:00:17.725Z,20.35
2022-07-25T04:02:47.177Z,18.42
2022-07-25T04:05:16.099Z,17.58
2022-07-25T04:07:44.973Z,17.77
2022-07-25T04:10:14.214Z,18.73
2022-07-25T04:12:43.239Z,15.50
2022-07-25T04:15:12.590Z,18.70
2022-07-25T04:17:42.816Z,17.02
2022-07-25T04:20:13.719Z,19.33
2022-07-25T04:22:46.721Z,17.48
2022-07-25T04:25:17.903Z,15.95
2022-07-25T04:27:46.858Z,17.63
2022-07-25T04:30:24.155Z,19.20
2022-07-25T04:32:55.164Z,16.95
2022-07-25T04:35:24.237Z,16.33
2022-07-25T04:37:53.148Z,16.38
2022-07-25T04:40:22.245Z,13.60
2022-07-25T04:42:51.624Z,16.08
2022-07-25T04:45:20.642Z,18.50
2022-07-25T04:47:49.578Z,19.25
2022-07-25T04:50:24.787Z,16.65
2022-07-25T04:52:54.311Z,16.00
2022-07-25T04:55:23.900Z,23.27
2022-07-25T04:57:52.917Z,15.27
2022-07-25T05:00:23.753Z,19.38
2022-07-25T05:02:52.910Z,15.63
2022-07-25T05:05:23.711Z,17.13
2022-07-25T05:07:57.538Z,20.67
2022-07-25T05:10:28.109Z,14.93
2022-07-25T05:13:43.874Z,16.27
2022-07-25T05:16:10.664Z,18.50
2022-07-25T05:18:39.647Z,16.35
2022-07-25T05:21:14.285Z,16.73
2022-07-25T05:23:43.263Z,15.02
2022-07-25T05:26:12.503Z,16.17
2022-07-25T05:28:41.620Z,17.25
2022-07-25T05:31:10.641Z,14.80
2022-07-25T05:33:39.623Z,20.70
2022-07-25T05:36:09.207Z,14.95
2022-07-25T05:38:39.499Z,16.67
2022-07-25T05:41:09.301Z,15.18
2022-07-25T05:43:38.241Z,16.05
2022-07-25T05:46:10.273Z,17.30
2022-07-25T05:48:39.405Z,17.25
2022-07-25T05:51:08.529Z,17.27
2022-07-25T05:53:39.476Z,17.10
2022-07-25T05:56:10.031Z,16.77
2022-07-25T05:58:40.503Z,15.80
2022-07-25T06:01:09.945Z,14.93
2022-07-25T06:03:39.548Z,17.13
2022-07-25T06:06:09.329Z,16.23
2022-07-25T06:08:40.187Z,16.95
2022-07-25T06:11:09.572Z,18.02
2022-07-25T06:13:38.635Z,18.33
2022-07-25T06:16:09.773Z,14.98
2022-07-25T06:18:38.611Z,16.08
2022-07-25T06:21:07.781Z,16.10
2022-07-25T06:23:36.667Z,15.57
2022-07-25T06:26:10.398Z,14.82
2022-07-25T06:28:39.646Z,13.88
2022-07-25T06:31:08.755Z,14.27
2022-07-25T06:33:37.661Z,12.05
2022-07-25T06:36:07.961Z,11.80
2022-07-25T06:38:36.904Z,11.85
2022-07-25T06:41:07.623Z,11.35
2022-07-25T06:43:36.537Z,13.18
2022-07-25T06:46:05.445Z,12.38
2022-07-25T06:48:34.471Z,12.07
2022-07-25T06:51:03.776Z,11.85
2022-07-25T06:53:35.510Z,12.68
2022-07-25T06:56:04.464Z,9.95
2022-07-25T06:58:35.148Z,10.40
2022-07-25T07:01:04.219Z,13.75
2022-07-25T07:03:38.230Z,12.40
2022-07-25T07:06:08.305Z,9.90
2022-07-25T07:08:37.800Z,9.43
2022-07-25T07:11:07.744Z,11.55
2022-07-25T07:13:38.082Z,10.15
2022-07-25T07:16:18.110Z,10.40
2022-07-25T07:18:49.282Z,12.27
2022-07-25T07:21:21.450Z,9.63
2022-07-25T07:26:24.128Z,10.75
2022-07-25T07:28:56.260Z,10.90
2022-07-25T07:31:25.231Z,9.75
2022-07-25T07:33:54.149Z,9.43
2022-07-25T07:36:23.704Z,9.85
2022-07-25T07:38:55.969Z,12.75
2022-07-25T07:41:24.885Z,10.48
2022-07-25T07:43:55.081Z,10.25
2022-07-25T07:46:26.893Z,11.07
2022-07-25T07:48:56.211Z,12.40
2022-07-25T07:51:25.440Z,12.13
2022-07-25T07:54:12.211Z,8.63
2022-07-25T07:56:42.201Z,10.07
2022-07-25T07:59:12.914Z,9.43
2022-07-25T08:01:41.885Z,12.70
2022-07-25T08:04:10.826Z,8.27
2022-07-25T08:06:40.626Z,9.00
2022-07-25T08:09:10.027Z,10.55
2022-07-25T08:11:39.320Z,8.88
2022-07-25T08:14:08.561Z,9.50
2022-07-25T08:16:41.075Z,10.70
2022-07-25T08:19:10.063Z,9.30
2022-07-25T08:21:39.597Z,10.65
2022-07-25T08:24:09.355Z,8.52
2022-07-25T08:26:38.890Z,9.05
2022-07-25T08:29:28.087Z,8.15
2022-07-25T08:31:58.105Z,9.57
2022-07-25T08:34:27.065Z,10.15
2022-07-25T08:36:56.618Z,9.15
2022-07-25T08:39:25.692Z,9.65
2022-07-25T08:41:55.009Z,10.10
2022-07-25T08:44:29.005Z,8.77
2022-07-25T08:47:01.131Z,8.95
2022-07-25T08:49:30.141Z,10.55
2022-07-25T08:52:00.507Z,8.70
2022-07-25T08:54:30.134Z,8.60
2022-07-25T08:56:59.717Z,7.93
2022-07-25T08:59:28.562Z,9.57
2022-07-25T09:02:02.252Z,9.38
2022-07-25T09:04:32.284Z,6.95
2022-07-25T09:07:08.488Z,7.85
2022-07-25T09:09:39.761Z,10.50
2022-07-25T09:14:45.174Z,8.45
2022-07-25T09:17:22.317Z,8.65
2022-07-25T09:19:57.280Z,7.35
2022-07-25T09:22:26.255Z,18.38
2022-07-25T09:24:55.385Z,10.20
2022-07-25T09:27:24.236Z,7.47
2022-07-25T09:29:54.059Z,8.15
2022-07-25T09:32:25.347Z,8.05
2022-07-25T09:34:54.688Z,9.43
2022-07-25T09:37:29.310Z,7.93
2022-07-25T09:39:58.434Z,7.22
2022-07-25T09:42:29.618Z,7.70
2022-07-25T09:45:11.263Z,8.13
2022-07-25T09:47:53.627Z,7.28
2022-07-25T09:50:24.280Z,7.82
2022-07-25T09:52:55.363Z,7.72
2022-07-25T09:55:24.857Z,8.85
2022-07-25T09:57:54.225Z,7.28
2022-07-25T10:00:25.368Z,8.50
2022-07-25T10:03:11.382Z,9.30
2022-07-25T10:06:03.503Z,7.47
2022-07-25T10:08:38.221Z,7.90
2022-07-25T10:11:18.763Z,7.97
2022-07-25T10:13:47.990Z,8.20
2022-07-25T10:16:19.514Z,8.25
2022-07-25T10:18:54.424Z,7.57
2022-07-25T10:21:27.409Z,8.55
2022-07-25T10:24:02.427Z,7.90
2022-07-25T10:26:32.548Z,7.93
2022-07-25T10:29:02.649Z,7.73
2022-07-25T10:31:38.501Z,8.70
2022-07-25T10:34:11.465Z,8.30
2022-07-25T10:36:47.878Z,7.85
2022-07-25T10:39:18.937Z,8.10
2022-07-25T10:41:53.146Z,7.53
2022-07-25T10:44:22.461Z,7.25
2022-07-25T10:46:51.618Z,7.25
2022-07-25T10:49:31.704Z,7.55
2022-07-25T10:52:04.570Z,9.30
2022-07-25T10:54:38.290Z,7.00
2022-07-25T10:57:16.259Z,6.50
2022-07-25T10:59:45.484Z,6.57
2022-07-25T11:02:16.436Z,7.07
2022-07-25T11:04:59.406Z,7.72
2022-07-25T11:07:29.268Z,7.70
2022-07-25T11:10:01.582Z,8.05
2022-07-25T11:12:33.477Z,7.40
2022-07-25T11:15:04.360Z,7.88
2022-07-25T11:17:34.340Z,8.05
2022-07-25T11:20:25.984Z,7.95
2022-07-25T11:22:57.449Z,7.68
2022-07-25T11:25:26.615Z,7.43
2022-07-25T11:27:58.957Z,7.97
2022-07-25T11:30:31.409Z,8.35
2022-07-25T11:33:04.368Z,6.97
2022-07-25T11:35:56.484Z,7.05
2022-07-25T11:38:26.230Z,7.15
2022-07-25T11:40:55.951Z,6.60
2022-07-25T11:43:25.996Z,7.82
2022-07-25T11:46:00.424Z,7.28
2022-07-25T11:48:35.171Z,6.80
2022-07-25T11:51:18.406Z,7.13
2022-07-25T11:53:50.929Z,7.07
2022-07-25T11:56:42.839Z,8.02
2022-07-25T11:59:12.835Z,7.03
2022-07-25T12:01:43.934Z,6.70
2022-07-25T12:04:17.747Z,6.97
2022-07-25T12:06:50.276Z,6.72
2022-07-25T12:09:21.630Z,6.75
2022-07-25T12:11:51.459Z,6.85
2022-07-25T12:14:20.567Z,6.80
2022-07-25T12:16:49.779Z,6.10
2022-07-25T12:19:23.009Z,6.85
2022-07-25T12:21:53.497Z,6.05
2022-07-25T12:24:22.877Z,6.40
2022-07-25T12:26:52.017Z,5.88
2022-07-25T12:29:21.126Z,6.43
2022-07-25T12:31:50.405Z,6.97
2022-07-25T12:34:19.531Z,7.43
2022-07-25T12:36:48.775Z,8.55
2022-07-25T12:39:19.477Z,7.13
2022-07-25T12:41:48.680Z,6.57
2022-07-25T12:44:17.899Z,6.75
2022-07-25T12:46:49.531Z,6.38
2022-07-25T12:49:21.882Z,6.18
2022-07-25T12:51:56.108Z,6.35
2022-07-25T12:54:28.507Z,5.88
2022-07-25T12:56:58.063Z,6.57
2022-07-25T12:59:27.819Z,5.90
2022-07-25T13:01:57.380Z,6.77
2022-07-25T13:04:27.170Z,5.50
2022-07-25T13:06:57.202Z,6.07
2022-07-25T13:09:28.867Z,5.40
2022-07-25T13:12:01.392Z,5.68
2022-07-25T13:14:36.025Z,5.80
2022-07-25T13:17:05.175Z,5.85
2022-07-25T13:19:34.503Z,5.20
2022-07-25T13:22:03.646Z,6.05
2022-07-25T13:24:35.190Z,5.97
2022-07-25T13:27:05.196Z,5.65
2022-07-25T13:29:34.756Z,6.07
2022-07-25T13:32:04.082Z,5.55
2022-07-25T13:34:33.298Z,6.00
2022-07-25T13:37:02.536Z,4.43
2022-07-25T13:39:33.711Z,4.80
2022-07-25T13:42:02.850Z,4.50
2022-07-25T13:44:31.978Z,6.40
2022-07-25T13:47:01.898Z,4.65
2022-07-25T13:49:32.272Z,4.63
2022-07-25T13:52:01.491Z,3.90
2022-07-25T13:54:30.704Z,4.30
2022-07-25T13:57:09.365Z,4.32
2022-07-25T13:59:38.446Z,4.60
2022-07-25T14:02:07.773Z,4.75
2022-07-25T14:04:36.965Z,4.30
2022-07-25T14:07:06.133Z,4.78
2022-07-25T14:09:35.319Z,4.85
2022-07-25T14:12:04.520Z,4.38
2022-07-25T14:14:35.060Z,8.00
2022-07-25T14:19:33.134Z,4.07
2022-07-25T14:22:02.322Z,4.40
2022-07-25T14:24:31.428Z,5.07
2022-07-25T14:27:00.564Z,5.00
2022-07-25T14:29:30.793Z,4.00
2022-07-25T14:32:01.535Z,4.60
2022-07-25T14:34:30.649Z,4.05
2022-07-25T14:36:59.536Z,4.53
2022-07-25T14:39:28.580Z,5.30
2022-07-25T14:41:59.473Z,3.88
2022-07-25T14:44:29.035Z,4.83
2022-07-25T14:47:00.156Z,6.35
2022-07-25T14:49:30.505Z,5.00
2022-07-25T14:51:59.720Z,6.72
2022-07-25T14:54:28.639Z,5.03
2022-07-25T14:56:58.041Z,5.95
2022-07-25T14:59:26.891Z,5.10
2022-07-25T15:01:55.843Z,5.63
2022-07-25T15:04:27.334Z,5.07
2022-07-25T15:06:56.568Z,5.88
2022-07-25T15:09:25.789Z,6.15
2022-07-25T15:11:54.811Z,8.50
2022-07-25T15:14:23.766Z,6.93
2022-07-25T15:16:52.756Z,6.82
2022-07-25T15:19:21.779Z,6.90
2022-07-25T15:21:51.998Z,7.22
2022-07-25T15:24:23.493Z,7.87
2022-07-25T15:26:54.690Z,6.68
2022-07-25T15:29:23.540Z,6.22
2022-07-25T15:31:52.634Z,6.60
2022-07-25T15:34:21.695Z,7.15
2022-07-25T15:36:52.296Z,7.10
2022-07-25T15:39:23.084Z,7.20
2022-07-25T15:41:52.024Z,7.32
2022-07-25T15:44:21.019Z,8.60
2022-07-25T15:46:50.243Z,7.15
2022-07-25T15:49:19.179Z,6.93
2022-07-25T15:51:48.309Z,7.53
2022-07-25T15:54:18.609Z,7.57
2022-07-25T15:56:47.986Z,8.37
2022-07-25T15:59:17.722Z,8.23
2022-07-25T16:01:46.618Z,8.20
2022-07-25T16:04:15.935Z,8.23
2022-07-25T16:06:48.913Z,9.40
2022-07-25T16:09:19.459Z,9.75
2022-07-25T16:11:48.313Z,8.90
2022-07-25T16:14:17.345Z,8.77
2022-07-25T16:16:46.416Z,8.60
2022-07-25T16:19:15.541Z,8.00
2022-07-25T16:21:44.711Z,7.05
2022-07-25T16:24:13.730Z,6.78
2022-07-25T16:26:44.081Z,6.25
2022-07-25T16:29:13.209Z,8.87
2022-07-25T16:31:42.479Z,6.30
2022-07-25T16:34:11.321Z,6.55
2022-07-25T16:36:40.218Z,9.98
2022-07-25T16:39:09.462Z,7.93
2022-07-25T16:41:38.745Z,6.75
2022-07-25T16:44:09.059Z,6.55
2022-07-25T16:46:38.077Z,5.75
2022-07-25T16:49:07.643Z,9.35
2022-07-25T16:51:37.424Z,5.88
2022-07-25T16:54:06.598Z,6.53
2022-07-25T16:56:36.453Z,6.85
2022-07-25T16:59:06.061Z,6.18
2022-07-25T17:01:36.826Z,6.25
2022-07-25T17:04:06.446Z,6.72
2022-07-25T17:06:35.692Z,6.60
2022-07-25T17:09:05.870Z,6.70
2022-07-25T17:11:35.470Z,6.78
2022-07-25T17:14:04.987Z,7.90
2022-07-25T17:16:34.404Z,7.47
2022-07-25T17:19:05.298Z,8.10
2022-07-25T17:21:34.406Z,7.50
2022-07-25T17:24:03.414Z,7.78
2022-07-25T17:26:32.304Z,8.00
2022-07-25T17:29:02.000Z,8.68
2022-07-25T17:31:30.912Z,9.32
2022-07-25T17:33:59.767Z,7.55
2022-07-25T17:36:30.079Z,7.88
2022-07-25T17:38:58.972Z,8.85
2022-07-25T17:41:27.796Z,8.90
2022-07-25T17:43:56.631Z,8.77
2022-07-25T17:46:25.642Z,8.85
2022-07-25T17:48:54.757Z,8.50
2022-07-25T17:51:23.688Z,7.10
2022-07-25T17:53:54.042Z,7.88
2022-07-25T17:56:22.931Z,8.07
2022-07-25T17:58:51.949Z,8.70
2022-07-25T18:01:20.791Z,8.75
2022-07-25T18:03:50.556Z,8.73
2022-07-25T18:06:19.457Z,9.38
2022-07-25T18:08:48.570Z,8.85
2022-07-25T18:11:18.875Z,10.43
2022-07-25T18:13:47.857Z,7.88
2022-07-25T18:16:16.948Z,8.15
2022-07-25T18:18:46.002Z,8.13
2022-07-25T18:21:15.852Z,10.07
2022-07-25T18:23:44.661Z,12.45
2022-07-25T18:26:13.690Z,14.75
2022-07-25T18:28:44.008Z,14.65
2022-07-25T18:31:13.386Z,13.13
2022-07-25T18:33:42.625Z,9.13
2022-07-25T18:36:11.712Z,10.45
2022-07-25T18:38:40.744Z,9.05
2022-07-25T18:41:28.634Z,8.63
2022-07-25T18:44:01.225Z,10.77
2022-07-25T18:46:32.849Z,8.68
2022-07-25T18:49:03.281Z,10.75
2022-07-25T18:51:32.275Z,8.00
2022-07-25T18:54:01.358Z,9.43
2022-07-25T18:56:30.900Z,8.40
2022-07-25T18:59:01.243Z,8.70
2022-07-25T19:01:31.643Z,8.32
2022-07-25T19:04:00.510Z,8.48
2022-07-25T19:06:29.393Z,9.18
2022-07-25T19:08:58.442Z,8.30
2022-07-25T19:11:27.378Z,9.30
2022-07-25T19:13:56.344Z,10.43
2022-07-25T19:16:27.962Z,9.40
2022-07-25T19:18:56.910Z,8.70
2022-07-25T19:21:25.810Z,10.27
2022-07-25T19:23:54.743Z,9.32
2022-07-25T19:26:24.062Z,9.70
2022-07-25T19:28:52.913Z,9.07
2022-07-25T19:31:21.913Z,10.75
2022-07-25T19:33:52.192Z,9.68
2022-07-25T19:36:22.845Z,9.38
2022-07-25T19:38:51.639Z,10.50
2022-07-25T19:41:23.946Z,9.13
2022-07-25T19:43:54.066Z,9.38
2022-07-25T19:46:23.235Z,9.60
2022-07-25T19:48:53.673Z,9.82
2022-07-25T19:51:22.626Z,10.93
2022-07-25T19:53:55.028Z,13.50
2022-07-25T19:56:23.896Z,11.63
2022-07-25T19:58:52.867Z,10.60
2022-07-25T20:01:21.860Z,9.52
2022-07-25T20:03:50.847Z,10.07
2022-07-25T20:06:21.574Z,9.65
2022-07-25T20:08:50.492Z,10.13
2022-07-25T20:11:20.626Z,10.18
2022-07-25T20:13:49.455Z,8.35
2022-07-25T20:16:18.450Z,11.15
2022-07-25T20:18:47.584Z,6.80
2022-07-25T20:21:17.931Z,13.25
2022-07-25T20:23:48.574Z,11.57
2022-07-25T20:26:17.527Z,6.18
2022-07-25T20:28:46.507Z,7.95
2022-07-25T20:31:15.462Z,6.40
2022-07-25T20:33:46.493Z,7.68
2022-07-25T20:36:15.474Z,7.23
2022-07-25T20:38:44.410Z,7.95
2022-07-25T20:41:15.200Z,8.43
2022-07-25T20:43:44.118Z,6.75
2022-07-25T20:46:13.139Z,7.05
2022-07-25T20:48:42.099Z,11.27
2022-07-25T20:51:13.214Z,8.18
2022-07-25T20:53:42.119Z,10.03
2022-07-25T20:56:11.229Z,9.38
2022-07-25T20:58:41.500Z,7.70
2022-07-25T21:01:10.453Z,10.40
2022-07-25T21:03:39.388Z,9.70
2022-07-25T21:06:09.085Z,7.55
2022-07-25T21:08:38.079Z,6.78
2022-07-25T21:11:06.984Z,8.13
2022-07-25T21:13:36.050Z,7.10
2022-07-25T21:16:07.492Z,8.55
2022-07-25T21:18:36.443Z,6.90
2022-07-25T21:21:11.713Z,7.32
2022-07-25T21:23:41.882Z,12.40
2022-07-25T21:26:11.320Z,7.32
2022-07-25T21:28:40.218Z,8.93
2022-07-25T21:31:10.512Z,7.40
2022-07-25T21:33:39.589Z,11.25
2022-07-25T21:36:10.014Z,8.82
2022-07-25T21:38:39.114Z,8.98
2022-07-25T21:41:08.779Z,8.68
2022-07-25T21:43:37.737Z,10.93
2022-07-25T21:46:07.130Z,12.05
2022-07-25T21:48:55.012Z,10.38
2022-07-25T21:51:27.095Z,12.60
2022-07-25T21:54:13.115Z,9.85
2022-07-25T21:56:42.232Z,10.88
2022-07-25T21:59:11.407Z,9.80
2022-07-25T22:01:40.765Z,9.30
2022-07-25T22:04:13.896Z,9.05
2022-07-25T22:06:43.104Z,7.82
2022-07-25T22:09:12.012Z,7.70
2022-07-25T22:11:45.971Z,6.97
2022-07-25T22:14:16.969Z,9.02
2022-07-25T22:16:45.947Z,8.98
2022-07-25T22:19:19.734Z,7.85
2022-07-25T22:21:51.100Z,8.77
2022-07-25T22:24:20.136Z,8.57
2022-07-25T22:26:49.055Z,9.27
2022-07-25T22:29:17.932Z,8.15
2022-07-25T22:31:46.930Z,9.48
2022-07-25T22:34:17.541Z,11.70
2022-07-25T22:36:46.615Z,11.43
2022-07-25T22:39:16.739Z,11.38
2022-07-25T22:41:46.013Z,11.25
2022-07-25T22:44:15.151Z,11.43
2022-07-25T22:46:44.305Z,10.88
2022-07-25T22:49:13.593Z,11.05
2022-07-25T22:51:44.262Z,10.82
2022-07-25T22:54:13.385Z,10.23
2022-07-25T22:56:42.406Z,10.00
2022-07-25T22:59:11.537Z,11.15
2022-07-25T23:01:40.620Z,9.50
2022-07-25T23:04:09.745Z,9.52
2022-07-25T23:06:38.627Z,9.75
2022-07-25T23:09:09.225Z,9.38
2022-07-25T23:11:38.617Z,10.70
2022-07-25T23:14:07.803Z,9.77
2022-07-25T23:16:36.773Z,10.93
2022-07-25T23:19:05.907Z,9.25
2022-07-25T23:21:35.050Z,9.32
2022-07-25T23:24:03.964Z,9.73
2022-07-25T23:26:34.175Z,9.10
2022-07-25T23:29:03.000Z,9.65
2022-07-25T23:31:32.581Z,9.90
2022-07-25T23:34:01.502Z,9.98
2022-07-25T23:36:30.326Z,9.38
2022-07-25T23:38:59.269Z,9.20
2022-07-25T23:41:28.140Z,7.90
2022-07-25T23:44:00.519Z,8.48
2022-07-25T23:46:31.040Z,7.55
2022-07-25T23:49:01.333Z,7.15
2022-07-25T23:51:30.444Z,8.00
2022-07-25T23:53:59.992Z,7.18
2022-07-25T23:56:29.281Z,7.00
2022-07-25T23:58:59.591Z,7.78
